sensor_id;sensor_type;location;lat;lon;timestamp;P1;durP1;ratioP1;P2;durP2;ratioP2
20711;SDS011;10517;50.742;4.224;2022-12-07T00:01:05;13.53;;;7.23;;
20711;SDS011;10517;50.742;4.224;2022-12-07T00:03:39;13.70;;;5.93;;
20711;SDS011;10517;50.742;4.224;2022-12-07T00:06:06;18.50;;;6.87;;
20711;SDS011;10517;50.742;4.224;2022-12-07T00:08:33;11.30;;;6.73;;
20711;SDS011;10517;50.742;4.224;2022-12-07T00:13:31;13.27;;;7.23;;
20711;SDS011;10517;50.742;4.224;2022-12-07T00:16:01;11.63;;;5.77;;
20711;SDS011;10517;50.742;4.224;2022-12-07T00:18:29;13.23;;;6.57;;
20711;SDS011;10517;50.742;4.224;2022-12-07T00:21:01;10.77;;;6.13;;
20711;SDS011;10517;50.742;4.224;2022-12-07T00:23:31;14.67;;;6.10;;
20711;SDS011;10517;50.742;4.224;2022-12-07T00:26:08;12.87;;;5.77;;
20711;SDS011;10517;50.742;4.224;2022-12-07T00:28:35;12.00;;;6.10;;
20711;SDS011;10517;50.742;4.224;2022-12-07T00:31:02;8.37;;;5.07;;
20711;SDS011;10517;50.742;4.224;2022-12-07T00:33:38;12.20;;;5.90;;
20711;SDS011;10517;50.742;4.224;2022-12-07T00:36:05;13.53;;;6.60;;
20711;SDS011;10517;50.742;4.224;2022-12-07T00:38:33;12.00;;;5.80;;
20711;SDS011;10517;50.742;4.224;2022-12-07T00:41:08;12.80;;;5.67;;
20711;SDS011;10517;50.742;4.224;2022-12-07T00:43:45;11.50;;;6.10;;
20711;SDS011;10517;50.742;4.224;2022-12-07T00:46:13;11.97;;;6.07;;
20711;SDS011;10517;50.742;4.224;2022-12-07T00:48:39;10.93;;;5.17;;
20711;SDS011;10517;50.742;4.224;2022-12-07T00:51:05;14.90;;;7.07;;
20711;SDS011;10517;50.742;4.224;2022-12-07T00:53:35;15.67;;;5.70;;
20711;SDS011;10517;50.742;4.224;2022-12-07T00:56:04;12.03;;;5.40;;
20711;SDS011;10517;50.742;4.224;2022-12-07T00:58:34;11.83;;;6.50;;
20711;SDS011;10517;50.742;4.224;2022-12-07T01:01:00;14.27;;;5.93;;
20711;SDS011;10517;50.742;4.224;2022-12-07T01:03:27;11.23;;;5.73;;
20711;SDS011;10517;50.742;4.224;2022-12-07T01:05:54;10.23;;;5.63;;
20711;SDS011;10517;50.742;4.224;2022-12-07T01:08:20;10.73;;;5.40;;
20711;SDS011;10517;50.742;4.224;2022-12-07T01:10:47;9.10;;;5.67;;
20711;SDS011;10517;50.742;4.224;2022-12-07T01:13:14;11.43;;;5.17;;
20711;SDS011;10517;50.742;4.224;2022-12-07T01:15:40;10.03;;;5.67;;
20711;SDS011;10517;50.742;4.224;2022-12-07T01:18:07;7.83;;;4.80;;
20711;SDS011;10517;50.742;4.224;2022-12-07T01:20:33;11.53;;;5.27;;
20711;SDS011;10517;50.742;4.224;2022-12-07T01:22:59;10.23;;;4.87;;
20711;SDS011;10517;50.742;4.224;2022-12-07T01:25:25;9.93;;;4.67;;
20711;SDS011;10517;50.742;4.224;2022-12-07T01:27:51;9.70;;;5.47;;
20711;SDS011;10517;50.742;4.224;2022-12-07T01:30:16;8.67;;;5.43;;
20711;SDS011;10517;50.742;4.224;2022-12-07T01:32:42;9.77;;;4.97;;
20711;SDS011;10517;50.742;4.224;2022-12-07T01:35:07;12.23;;;5.53;;
20711;SDS011;10517;50.742;4.224;2022-12-07T01:37:37;8.03;;;3.90;;
20711;SDS011;10517;50.742;4.224;2022-12-07T01:40:06;12.23;;;5.20;;
20711;SDS011;10517;50.742;4.224;2022-12-07T01:42:33;10.63;;;5.23;;
20711;SDS011;10517;50.742;4.224;2022-12-07T01:47:47;7.53;;;4.87;;
20711;SDS011;10517;50.742;4.224;2022-12-07T01:50:20;8.83;;;5.13;;
20711;SDS011;10517;50.742;4.224;2022-12-07T01:52:49;8.10;;;5.07;;
20711;SDS011;10517;50.742;4.224;2022-12-07T01:55:18;10.53;;;5.10;;
20711;SDS011;10517;50.742;4.224;2022-12-07T01:57:45;11.43;;;5.47;;
20711;SDS011;10517;50.742;4.224;2022-12-07T02:00:14;11.70;;;5.50;;
20711;SDS011;10517;50.742;4.224;2022-12-07T02:02:47;14.10;;;6.00;;
20711;SDS011;10517;50.742;4.224;2022-12-07T02:05:20;12.70;;;5.53;;
20711;SDS011;10517;50.742;4.224;2022-12-07T02:07:49;9.63;;;5.33;;
20711;SDS011;10517;50.742;4.224;2022-12-07T02:10:19;9.27;;;5.57;;
20711;SDS011;10517;50.742;4.224;2022-12-07T02:12:47;11.07;;;5.80;;
20711;SDS011;10517;50.742;4.224;2022-12-07T02:15:16;10.97;;;5.23;;
20711;SDS011;10517;50.742;4.224;2022-12-07T02:20:35;9.87;;;5.40;;
20711;SDS011;10517;50.742;4.224;2022-12-07T02:23:15;9.33;;;5.10;;
20711;SDS011;10517;50.742;4.224;2022-12-07T02:26:10;7.93;;;5.07;;
20711;SDS011;10517;50.742;4.224;2022-12-07T02:31:23;13.30;;;6.93;;
20711;SDS011;10517;50.742;4.224;2022-12-07T02:33:55;18.63;;;6.20;;
20711;SDS011;10517;50.742;4.224;2022-12-07T02:36:31;12.23;;;6.40;;
20711;SDS011;10517;50.742;4.224;2022-12-07T02:39:05;12.30;;;6.67;;
20711;SDS011;10517;50.742;4.224;2022-12-07T02:41:38;15.20;;;7.37;;
20711;SDS011;10517;50.742;4.224;2022-12-07T02:44:12;20.13;;;7.93;;
20711;SDS011;10517;50.742;4.224;2022-12-07T02:46:43;11.83;;;6.27;;
20711;SDS011;10517;50.742;4.224;2022-12-07T02:49:14;11.30;;;6.57;;
20711;SDS011;10517;50.742;4.224;2022-12-07T02:51:41;11.97;;;6.67;;
20711;SDS011;10517;50.742;4.224;2022-12-07T02:54:12;11.10;;;6.70;;
20711;SDS011;10517;50.742;4.224;2022-12-07T03:10:24;15.20;;;6.67;;
20711;SDS011;10517;50.742;4.224;2022-12-07T03:18:25;10.67;;;5.67;;
20711;SDS011;10517;50.742;4.224;2022-12-07T03:20:57;15.30;;;6.50;;
20711;SDS011;10517;50.742;4.224;2022-12-07T03:23:27;10.93;;;6.17;;
20711;SDS011;10517;50.742;4.224;2022-12-07T03:25:55;11.00;;;5.70;;
20711;SDS011;10517;50.742;4.224;2022-12-07T03:28:24;11.30;;;6.23;;
20711;SDS011;10517;50.742;4.224;2022-12-07T03:30:57;8.87;;;5.27;;
20711;SDS011;10517;50.742;4.224;2022-12-07T03:33:29;12.17;;;6.53;;
20711;SDS011;10517;50.742;4.224;2022-12-07T03:36:08;10.00;;;5.53;;
20711;SDS011;10517;50.742;4.224;2022-12-07T03:41:27;9.90;;;5.83;;
20711;SDS011;10517;50.742;4.224;2022-12-07T03:43:56;10.40;;;6.20;;
20711;SDS011;10517;50.742;4.224;2022-12-07T03:49:30;10.57;;;6.50;;
20711;SDS011;10517;50.742;4.224;2022-12-07T03:55:02;8.33;;;5.40;;
20711;SDS011;10517;50.742;4.224;2022-12-07T03:57:37;6.83;;;4.10;;
20711;SDS011;10517;50.742;4.224;2022-12-07T04:00:04;12.60;;;5.03;;
20711;SDS011;10517;50.742;4.224;2022-12-07T04:02:31;8.37;;;5.90;;
20711;SDS011;10517;50.742;4.224;2022-12-07T04:04:58;19.23;;;6.27;;
20711;SDS011;10517;50.742;4.224;2022-12-07T04:07:24;13.70;;;5.90;;
20711;SDS011;10517;50.742;4.224;2022-12-07T04:09:50;23.27;;;7.20;;
20711;SDS011;10517;50.742;4.224;2022-12-07T04:12:16;9.17;;;5.20;;
20711;SDS011;10517;50.742;4.224;2022-12-07T04:14:41;9.73;;;5.83;;
20711;SDS011;10517;50.742;4.224;2022-12-07T04:17:08;8.23;;;5.23;;
20711;SDS011;10517;50.742;4.224;2022-12-07T04:19:33;12.57;;;5.20;;
20711;SDS011;10517;50.742;4.224;2022-12-07T04:22:00;7.03;;;4.77;;
20711;SDS011;10517;50.742;4.224;2022-12-07T04:24:27;14.30;;;5.83;;
20711;SDS011;10517;50.742;4.224;2022-12-07T04:26:54;9.53;;;6.00;;
20711;SDS011;10517;50.742;4.224;2022-12-07T04:29:20;8.43;;;4.80;;
20711;SDS011;10517;50.742;4.224;2022-12-07T04:31:46;9.10;;;5.07;;
20711;SDS011;10517;50.742;4.224;2022-12-07T04:34:15;9.80;;;5.63;;
20711;SDS011;10517;50.742;4.224;2022-12-07T04:36:41;8.47;;;5.37;;
20711;SDS011;10517;50.742;4.224;2022-12-07T04:39:09;9.00;;;4.70;;
20711;SDS011;10517;50.742;4.224;2022-12-07T04:41:59;8.87;;;4.90;;
20711;SDS011;10517;50.742;4.224;2022-12-07T04:44:26;9.37;;;4.63;;
20711;SDS011;10517;50.742;4.224;2022-12-07T04:46:53;12.10;;;4.90;;
20711;SDS011;10517;50.742;4.224;2022-12-07T04:49:19;15.10;;;5.00;;
20711;SDS011;10517;50.742;4.224;2022-12-07T04:51:45;8.60;;;5.23;;
20711;SDS011;10517;50.742;4.224;2022-12-07T04:54:11;8.97;;;5.20;;
20711;SDS011;10517;50.742;4.224;2022-12-07T04:56:38;7.37;;;5.00;;
20711;SDS011;10517;50.742;4.224;2022-12-07T04:59:04;14.97;;;5.93;;
20711;SDS011;10517;50.742;4.224;2022-12-07T05:01:30;14.83;;;5.50;;
20711;SDS011;10517;50.742;4.224;2022-12-07T05:03:57;7.93;;;4.93;;
20711;SDS011;10517;50.742;4.224;2022-12-07T05:06:22;11.77;;;5.63;;
20711;SDS011;10517;50.742;4.224;2022-12-07T05:08:48;7.53;;;5.00;;
20711;SDS011;10517;50.742;4.224;2022-12-07T05:11:14;7.10;;;4.70;;
20711;SDS011;10517;50.742;4.224;2022-12-07T05:14:00;6.63;;;5.00;;
20711;SDS011;10517;50.742;4.224;2022-12-07T05:16:27;16.17;;;5.47;;
20711;SDS011;10517;50.742;4.224;2022-12-07T05:18:53;8.90;;;5.47;;
20711;SDS011;10517;50.742;4.224;2022-12-07T05:21:19;8.20;;;5.43;;
20711;SDS011;10517;50.742;4.224;2022-12-07T05:23:45;16.60;;;5.37;;
20711;SDS011;10517;50.742;4.224;2022-12-07T05:26:10;8.07;;;5.27;;
20711;SDS011;10517;50.742;4.224;2022-12-07T05:28:36;10.20;;;4.83;;
20711;SDS011;10517;50.742;4.224;2022-12-07T05:31:02;7.60;;;4.57;;
20711;SDS011;10517;50.742;4.224;2022-12-07T05:33:28;7.53;;;4.93;;
20711;SDS011;10517;50.742;4.224;2022-12-07T05:35:53;7.63;;;5.03;;
20711;SDS011;10517;50.742;4.224;2022-12-07T05:38:19;9.73;;;5.40;;
20711;SDS011;10517;50.742;4.224;2022-12-07T05:40:45;8.17;;;5.13;;
20711;SDS011;10517;50.742;4.224;2022-12-07T05:43:10;7.30;;;5.57;;
20711;SDS011;10517;50.742;4.224;2022-12-07T05:45:36;7.60;;;4.33;;
20711;SDS011;10517;50.742;4.224;2022-12-07T05:48:01;8.07;;;4.87;;
20711;SDS011;10517;50.742;4.224;2022-12-07T05:50:27;10.70;;;5.13;;
20711;SDS011;10517;50.742;4.224;2022-12-07T05:52:53;13.53;;;6.33;;
20711;SDS011;10517;50.742;4.224;2022-12-07T05:55:18;11.40;;;6.30;;
20711;SDS011;10517;50.742;4.224;2022-12-07T05:57:44;12.43;;;7.13;;
20711;SDS011;10517;50.742;4.224;2022-12-07T06:00:30;10.93;;;6.10;;
20711;SDS011;10517;50.742;4.224;2022-12-07T06:02:56;8.50;;;5.47;;
20711;SDS011;10517;50.742;4.224;2022-12-07T06:05:21;8.97;;;6.80;;
20711;SDS011;10517;50.742;4.224;2022-12-07T06:07:47;8.97;;;5.37;;
20711;SDS011;10517;50.742;4.224;2022-12-07T06:10:12;10.90;;;6.93;;
20711;SDS011;10517;50.742;4.224;2022-12-07T06:12:38;11.07;;;5.63;;
20711;SDS011;10517;50.742;4.224;2022-12-07T06:15:07;11.80;;;6.07;;
20711;SDS011;10517;50.742;4.224;2022-12-07T06:17:33;20.57;;;5.77;;
20711;SDS011;10517;50.742;4.224;2022-12-07T06:19:59;10.30;;;5.43;;
20711;SDS011;10517;50.742;4.224;2022-12-07T06:22:24;14.93;;;5.70;;
20711;SDS011;10517;50.742;4.224;2022-12-07T06:24:50;11.63;;;5.43;;
20711;SDS011;10517;50.742;4.224;2022-12-07T06:27:15;8.50;;;5.67;;
20711;SDS011;10517;50.742;4.224;2022-12-07T06:29:41;11.73;;;5.87;;
20711;SDS011;10517;50.742;4.224;2022-12-07T06:32:07;8.13;;;5.60;;
20711;SDS011;10517;50.742;4.224;2022-12-07T06:34:32;11.10;;;5.67;;
20711;SDS011;10517;50.742;4.224;2022-12-07T06:36:58;9.00;;;5.80;;
20711;SDS011;10517;50.742;4.224;2022-12-07T06:39:25;8.07;;;5.50;;
20711;SDS011;10517;50.742;4.224;2022-12-07T06:41:52;14.23;;;6.43;;
20711;SDS011;10517;50.742;4.224;2022-12-07T06:44:19;14.40;;;6.67;;
20711;SDS011;10517;50.742;4.224;2022-12-07T06:46:45;14.53;;;6.23;;
20711;SDS011;10517;50.742;4.224;2022-12-07T06:49:11;14.80;;;6.47;;
20711;SDS011;10517;50.742;4.224;2022-12-07T06:51:36;12.60;;;6.27;;
20711;SDS011;10517;50.742;4.224;2022-12-07T06:54:06;16.13;;;7.23;;
20711;SDS011;10517;50.742;4.224;2022-12-07T06:56:35;12.57;;;6.77;;
20711;SDS011;10517;50.742;4.224;2022-12-07T06:59:01;12.87;;;6.37;;
20711;SDS011;10517;50.742;4.224;2022-12-07T07:01:27;10.67;;;6.80;;
20711;SDS011;10517;50.742;4.224;2022-12-07T07:03:53;11.37;;;6.00;;
20711;SDS011;10517;50.742;4.224;2022-12-07T07:06:18;11.77;;;6.63;;
20711;SDS011;10517;50.742;4.224;2022-12-07T07:08:44;13.00;;;6.90;;
20711;SDS011;10517;50.742;4.224;2022-12-07T07:11:09;12.13;;;6.73;;
20711;SDS011;10517;50.742;4.224;2022-12-07T07:13:35;13.60;;;7.70;;
20711;SDS011;10517;50.742;4.224;2022-12-07T07:16:02;12.70;;;7.93;;
20711;SDS011;10517;50.742;4.224;2022-12-07T07:18:28;17.53;;;8.47;;
20711;SDS011;10517;50.742;4.224;2022-12-07T07:20:54;17.53;;;7.60;;
20711;SDS011;10517;50.742;4.224;2022-12-07T07:23:20;18.47;;;8.27;;
20711;SDS011;10517;50.742;4.224;2022-12-07T07:25:47;11.53;;;7.43;;
20711;SDS011;10517;50.742;4.224;2022-12-07T07:28:13;14.00;;;7.87;;
20711;SDS011;10517;50.742;4.224;2022-12-07T07:30:39;16.90;;;7.87;;
20711;SDS011;10517;50.742;4.224;2022-12-07T07:33:05;14.10;;;8.03;;
20711;SDS011;10517;50.742;4.224;2022-12-07T07:35:31;12.80;;;6.93;;
20711;SDS011;10517;50.742;4.224;2022-12-07T07:37:59;11.67;;;7.37;;
20711;SDS011;10517;50.742;4.224;2022-12-07T07:40:25;13.33;;;7.53;;
20711;SDS011;10517;50.742;4.224;2022-12-07T07:42:52;13.80;;;7.27;;
20711;SDS011;10517;50.742;4.224;2022-12-07T07:45:19;14.30;;;7.10;;
20711;SDS011;10517;50.742;4.224;2022-12-07T07:47:46;14.73;;;7.63;;
20711;SDS011;10517;50.742;4.224;2022-12-07T07:50:12;14.73;;;7.10;;
20711;SDS011;10517;50.742;4.224;2022-12-07T07:52:37;13.13;;;7.67;;
20711;SDS011;10517;50.742;4.224;2022-12-07T07:55:03;15.20;;;7.63;;
20711;SDS011;10517;50.742;4.224;2022-12-07T07:57:29;11.40;;;6.70;;
20711;SDS011;10517;50.742;4.224;2022-12-07T07:59:55;19.03;;;7.63;;
20711;SDS011;10517;50.742;4.224;2022-12-07T08:02:21;11.50;;;6.93;;
20711;SDS011;10517;50.742;4.224;2022-12-07T08:04:47;14.07;;;6.63;;
20711;SDS011;10517;50.742;4.224;2022-12-07T08:07:13;13.80;;;7.60;;
20711;SDS011;10517;50.742;4.224;2022-12-07T08:09:39;10.67;;;6.30;;
20711;SDS011;10517;50.742;4.224;2022-12-07T08:12:04;11.20;;;6.23;;
20711;SDS011;10517;50.742;4.224;2022-12-07T08:14:30;18.50;;;7.13;;
20711;SDS011;10517;50.742;4.224;2022-12-07T08:16:56;8.23;;;6.03;;
20711;SDS011;10517;50.742;4.224;2022-12-07T08:19:22;11.23;;;5.67;;
20711;SDS011;10517;50.742;4.224;2022-12-07T08:21:48;12.70;;;6.23;;
20711;SDS011;10517;50.742;4.224;2022-12-07T08:24:14;15.33;;;6.00;;
20711;SDS011;10517;50.742;4.224;2022-12-07T08:26:40;12.03;;;5.33;;
20711;SDS011;10517;50.742;4.224;2022-12-07T08:29:06;10.23;;;6.00;;
20711;SDS011;10517;50.742;4.224;2022-12-07T08:31:32;13.60;;;6.57;;
20711;SDS011;10517;50.742;4.224;2022-12-07T08:33:57;12.53;;;6.80;;
20711;SDS011;10517;50.742;4.224;2022-12-07T08:36:23;20.87;;;6.73;;
20711;SDS011;10517;50.742;4.224;2022-12-07T08:38:49;15.17;;;6.93;;
20711;SDS011;10517;50.742;4.224;2022-12-07T08:41:15;16.03;;;6.13;;
20711;SDS011;10517;50.742;4.224;2022-12-07T08:43:41;11.30;;;6.23;;
20711;SDS011;10517;50.742;4.224;2022-12-07T08:46:11;13.07;;;7.30;;
20711;SDS011;10517;50.742;4.224;2022-12-07T08:48:58;15.10;;;6.53;;
20711;SDS011;10517;50.742;4.224;2022-12-07T08:51:32;15.77;;;6.73;;
20711;SDS011;10517;50.742;4.224;2022-12-07T08:53:58;12.90;;;7.07;;
20711;SDS011;10517;50.742;4.224;2022-12-07T08:56:27;13.87;;;7.27;;
20711;SDS011;10517;50.742;4.224;2022-12-07T08:58:53;11.63;;;6.70;;
20711;SDS011;10517;50.742;4.224;2022-12-07T09:01:19;14.47;;;6.93;;
20711;SDS011;10517;50.742;4.224;2022-12-07T09:03:45;21.20;;;7.83;;
20711;SDS011;10517;50.742;4.224;2022-12-07T09:06:10;24.17;;;7.77;;
20711;SDS011;10517;50.742;4.224;2022-12-07T09:08:37;18.87;;;6.93;;
20711;SDS011;10517;50.742;4.224;2022-12-07T09:11:06;13.73;;;6.33;;
20711;SDS011;10517;50.742;4.224;2022-12-07T09:13:32;18.40;;;6.83;;
20711;SDS011;10517;50.742;4.224;2022-12-07T09:16:00;12.97;;;5.33;;
20711;SDS011;10517;50.742;4.224;2022-12-07T09:18:26;12.63;;;6.47;;
20711;SDS011;10517;50.742;4.224;2022-12-07T09:20:51;12.37;;;6.27;;
20711;SDS011;10517;50.742;4.224;2022-12-07T09:23:17;9.77;;;5.43;;
20711;SDS011;10517;50.742;4.224;2022-12-07T09:25:43;17.27;;;6.17;;
20711;SDS011;10517;50.742;4.224;2022-12-07T09:28:08;8.83;;;5.77;;
20711;SDS011;10517;50.742;4.224;2022-12-07T09:30:34;11.93;;;6.13;;
20711;SDS011;10517;50.742;4.224;2022-12-07T09:33:00;22.93;;;7.23;;
20711;SDS011;10517;50.742;4.224;2022-12-07T09:35:25;14.97;;;7.47;;
20711;SDS011;10517;50.742;4.224;2022-12-07T09:37:51;14.47;;;7.10;;
20711;SDS011;10517;50.742;4.224;2022-12-07T09:40:17;13.10;;;7.57;;
20711;SDS011;10517;50.742;4.224;2022-12-07T09:42:47;11.60;;;6.57;;
20711;SDS011;10517;50.742;4.224;2022-12-07T09:45:15;12.73;;;6.13;;
20711;SDS011;10517;50.742;4.224;2022-12-07T09:47:45;15.53;;;6.87;;
20711;SDS011;10517;50.742;4.224;2022-12-07T09:50:12;13.30;;;6.60;;
20711;SDS011;10517;50.742;4.224;2022-12-07T09:52:40;13.57;;;6.40;;
20711;SDS011;10517;50.742;4.224;2022-12-07T09:55:14;15.07;;;7.13;;
20711;SDS011;10517;50.742;4.224;2022-12-07T09:57:41;12.23;;;6.57;;
20711;SDS011;10517;50.742;4.224;2022-12-07T10:00:15;16.63;;;6.20;;
20711;SDS011;10517;50.742;4.224;2022-12-07T10:02:43;14.80;;;6.57;;
20711;SDS011;10517;50.742;4.224;2022-12-07T10:05:13;11.97;;;6.00;;
20711;SDS011;10517;50.742;4.224;2022-12-07T10:07:43;14.13;;;5.50;;
20711;SDS011;10517;50.742;4.224;2022-12-07T10:10:17;12.10;;;5.00;;
20711;SDS011;10517;50.742;4.224;2022-12-07T10:13:00;12.03;;;5.20;;
20711;SDS011;10517;50.742;4.224;2022-12-07T10:18:18;7.90;;;4.60;;
20711;SDS011;10517;50.742;4.224;2022-12-07T10:23:58;14.13;;;5.40;;
20711;SDS011;10517;50.742;4.224;2022-12-07T10:26:26;6.60;;;4.47;;
20711;SDS011;10517;50.742;4.224;2022-12-07T10:32:04;8.27;;;4.17;;
20711;SDS011;10517;50.742;4.224;2022-12-07T10:34:39;10.17;;;3.87;;
20711;SDS011;10517;50.742;4.224;2022-12-07T10:37:27;11.57;;;4.60;;
20711;SDS011;10517;50.742;4.224;2022-12-07T10:39:54;9.83;;;4.00;;
20711;SDS011;10517;50.742;4.224;2022-12-07T10:47:48;9.10;;;4.17;;
20711;SDS011;10517;50.742;4.224;2022-12-07T10:50:29;9.47;;;4.27;;
20711;SDS011;10517;50.742;4.224;2022-12-07T10:53:27;9.07;;;3.53;;
20711;SDS011;10517;50.742;4.224;2022-12-07T11:07:40;9.53;;;4.97;;
20711;SDS011;10517;50.742;4.224;2022-12-07T11:13:22;12.27;;;4.43;;
20711;SDS011;10517;50.742;4.224;2022-12-07T11:18:57;8.47;;;3.67;;
20711;SDS011;10517;50.742;4.224;2022-12-07T11:21:57;6.73;;;4.17;;
20711;SDS011;10517;50.742;4.224;2022-12-07T11:27:01;9.20;;;4.23;;
20711;SDS011;10517;50.742;4.224;2022-12-07T11:34:55;7.27;;;3.43;;
20711;SDS011;10517;50.742;4.224;2022-12-07T11:37:23;7.63;;;3.23;;
20711;SDS011;10517;50.742;4.224;2022-12-07T11:39:55;5.67;;;2.43;;
20711;SDS011;10517;50.742;4.224;2022-12-07T11:42:41;3.47;;;2.40;;
20711;SDS011;10517;50.742;4.224;2022-12-07T11:47:46;1.30;;;1.17;;
20711;SDS011;10517;50.742;4.224;2022-12-07T11:50:24;4.90;;;1.70;;
20711;SDS011;10517;50.742;4.224;2022-12-07T11:52:56;5.83;;;1.83;;
20711;SDS011;10517;50.742;4.224;2022-12-07T11:58:49;6.97;;;1.73;;
20711;SDS011;10517;50.742;4.224;2022-12-07T12:06:36;4.63;;;0.90;;
20711;SDS011;10517;50.742;4.224;2022-12-07T12:22:48;2.13;;;1.23;;
20711;SDS011;10517;50.742;4.224;2022-12-07T12:25:44;5.83;;;2.00;;
20711;SDS011;10517;50.742;4.224;2022-12-07T12:33:54;3.53;;;1.10;;
20711;SDS011;10517;50.742;4.224;2022-12-07T12:36:23;2.30;;;0.90;;
20711;SDS011;10517;50.742;4.224;2022-12-07T12:44:03;3.77;;;0.70;;
20711;SDS011;10517;50.742;4.224;2022-12-07T12:46:58;4.50;;;0.87;;
20711;SDS011;10517;50.742;4.224;2022-12-07T12:49:30;3.43;;;0.60;;
20711;SDS011;10517;50.742;4.224;2022-12-07T12:54:59;1.77;;;1.00;;
20711;SDS011;10517;50.742;4.224;2022-12-07T12:57:34;6.20;;;1.40;;
20711;SDS011;10517;50.742;4.224;2022-12-07T13:00:02;1.83;;;1.33;;
20711;SDS011;10517;50.742;4.224;2022-12-07T13:02:48;1.73;;;1.53;;
20711;SDS011;10517;50.742;4.224;2022-12-07T13:05:20;3.93;;;1.20;;
20711;SDS011;10517;50.742;4.224;2022-12-07T13:07:55;2.93;;;1.67;;
20711;SDS011;10517;50.742;4.224;2022-12-07T13:15:37;6.37;;;1.70;;
20711;SDS011;10517;50.742;4.224;2022-12-07T13:18:22;4.13;;;1.27;;
20711;SDS011;10517;50.742;4.224;2022-12-07T13:23:38;2.73;;;1.33;;
20711;SDS011;10517;50.742;4.224;2022-12-07T13:31:44;6.23;;;1.47;;
20711;SDS011;10517;50.742;4.224;2022-12-07T13:34:36;2.30;;;1.30;;
20711;SDS011;10517;50.742;4.224;2022-12-07T13:39:58;2.40;;;0.93;;
20711;SDS011;10517;50.742;4.224;2022-12-07T13:42:26;4.13;;;1.27;;
20711;SDS011;10517;50.742;4.224;2022-12-07T13:44:55;4.30;;;1.20;;
20711;SDS011;10517;50.742;4.224;2022-12-07T13:47:31;1.63;;;1.10;;
20711;SDS011;10517;50.742;4.224;2022-12-07T13:53:07;0.77;;;0.63;;
20711;SDS011;10517;50.742;4.224;2022-12-07T13:55:38;3.37;;;1.43;;
20711;SDS011;10517;50.742;4.224;2022-12-07T13:58:10;4.03;;;1.33;;
20711;SDS011;10517;50.742;4.224;2022-12-07T14:00:36;8.70;;;2.07;;
20711;SDS011;10517;50.742;4.224;2022-12-07T14:05:37;3.17;;;1.10;;
20711;SDS011;10517;50.742;4.224;2022-12-07T14:13:02;1.67;;;1.10;;
20711;SDS011;10517;50.742;4.224;2022-12-07T14:15:49;4.63;;;1.10;;
20711;SDS011;10517;50.742;4.224;2022-12-07T14:23:34;2.43;;;1.20;;
20711;SDS011;10517;50.742;4.224;2022-12-07T14:26:05;2.23;;;1.17;;
20711;SDS011;10517;50.742;4.224;2022-12-07T14:28:38;4.47;;;1.20;;
20711;SDS011;10517;50.742;4.224;2022-12-07T14:31:08;5.33;;;1.47;;
20711;SDS011;10517;50.742;4.224;2022-12-07T14:33:36;4.10;;;1.57;;
20711;SDS011;10517;50.742;4.224;2022-12-07T14:36:03;5.23;;;1.93;;
20711;SDS011;10517;50.742;4.224;2022-12-07T14:38:28;5.90;;;1.80;;
20711;SDS011;10517;50.742;4.224;2022-12-07T14:40:54;3.37;;;1.90;;
20711;SDS011;10517;50.742;4.224;2022-12-07T14:43:40;1.70;;;1.17;;
20711;SDS011;10517;50.742;4.224;2022-12-07T14:46:06;3.20;;;1.73;;
20711;SDS011;10517;50.742;4.224;2022-12-07T14:48:31;5.90;;;1.20;;
20711;SDS011;10517;50.742;4.224;2022-12-07T14:50:57;3.13;;;1.67;;
20711;SDS011;10517;50.742;4.224;2022-12-07T14:53:25;2.27;;;1.50;;
20711;SDS011;10517;50.742;4.224;2022-12-07T14:55:55;2.20;;;1.13;;
20711;SDS011;10517;50.742;4.224;2022-12-07T14:58:20;4.07;;;1.60;;
20711;SDS011;10517;50.742;4.224;2022-12-07T15:00:46;1.30;;;1.03;;
20711;SDS011;10517;50.742;4.224;2022-12-07T15:03:12;0.67;;;0.60;;
20711;SDS011;10517;50.742;4.224;2022-12-07T15:05:38;4.50;;;0.53;;
20711;SDS011;10517;50.742;4.224;2022-12-07T15:08:05;1.10;;;0.60;;
20711;SDS011;10517;50.742;4.224;2022-12-07T15:10:33;1.37;;;0.50;;
20711;SDS011;10517;50.742;4.224;2022-12-07T15:13:02;1.63;;;0.70;;
20711;SDS011;10517;50.742;4.224;2022-12-07T15:15:50;2.03;;;0.63;;
20711;SDS011;10517;50.742;4.224;2022-12-07T15:18:17;1.97;;;0.83;;
20711;SDS011;10517;50.742;4.224;2022-12-07T15:20:43;1.70;;;0.73;;
20711;SDS011;10517;50.742;4.224;2022-12-07T15:23:10;1.40;;;0.70;;
20711;SDS011;10517;50.742;4.224;2022-12-07T15:25:36;1.97;;;1.30;;
20711;SDS011;10517;50.742;4.224;2022-12-07T15:28:05;0.90;;;0.73;;
20711;SDS011;10517;50.742;4.224;2022-12-07T15:30:31;2.53;;;0.90;;
20711;SDS011;10517;50.742;4.224;2022-12-07T15:32:56;1.80;;;1.03;;
20711;SDS011;10517;50.742;4.224;2022-12-07T15:35:22;3.97;;;1.67;;
20711;SDS011;10517;50.742;4.224;2022-12-07T15:37:47;3.53;;;1.60;;
20711;SDS011;10517;50.742;4.224;2022-12-07T15:40:13;5.03;;;1.87;;
20711;SDS011;10517;50.742;4.224;2022-12-07T15:42:39;8.23;;;1.93;;
20711;SDS011;10517;50.742;4.224;2022-12-07T15:45:06;2.03;;;1.20;;
20711;SDS011;10517;50.742;4.224;2022-12-07T15:47:40;3.00;;;1.10;;
20711;SDS011;10517;50.742;4.224;2022-12-07T15:50:09;3.73;;;1.70;;
20711;SDS011;10517;50.742;4.224;2022-12-07T15:52:37;3.50;;;1.30;;
20711;SDS011;10517;50.742;4.224;2022-12-07T15:55:03;3.43;;;0.97;;
20711;SDS011;10517;50.742;4.224;2022-12-07T15:57:30;2.47;;;1.07;;
20711;SDS011;10517;50.742;4.224;2022-12-07T15:59:56;1.60;;;1.10;;
20711;SDS011;10517;50.742;4.224;2022-12-07T16:02:22;2.30;;;1.10;;
20711;SDS011;10517;50.742;4.224;2022-12-07T16:04:48;3.80;;;1.13;;
20711;SDS011;10517;50.742;4.224;2022-12-07T16:07:15;5.13;;;2.90;;
20711;SDS011;10517;50.742;4.224;2022-12-07T16:09:41;1.50;;;1.40;;
20711;SDS011;10517;50.742;4.224;2022-12-07T16:12:07;2.57;;;1.40;;
20711;SDS011;10517;50.742;4.224;2022-12-07T16:14:33;1.40;;;1.30;;
20711;SDS011;10517;50.742;4.224;2022-12-07T16:16:59;1.93;;;1.60;;
20711;SDS011;10517;50.742;4.224;2022-12-07T16:19:25;2.87;;;1.60;;
20711;SDS011;10517;50.742;4.224;2022-12-07T16:21:50;3.47;;;2.13;;
20711;SDS011;10517;50.742;4.224;2022-12-07T16:24:16;1.63;;;1.10;;
20711;SDS011;10517;50.742;4.224;2022-12-07T16:26:42;1.10;;;1.10;;
20711;SDS011;10517;50.742;4.224;2022-12-07T16:29:12;1.80;;;1.23;;
20711;SDS011;10517;50.742;4.224;2022-12-07T16:31:38;2.03;;;1.47;;
20711;SDS011;10517;50.742;4.224;2022-12-07T16:34:04;4.73;;;2.27;;
20711;SDS011;10517;50.742;4.224;2022-12-07T16:36:29;5.67;;;3.73;;
20711;SDS011;10517;50.742;4.224;2022-12-07T16:38:57;11.73;;;3.70;;
20711;SDS011;10517;50.742;4.224;2022-12-07T16:41:23;5.23;;;2.30;;
20711;SDS011;10517;50.742;4.224;2022-12-07T16:43:49;2.20;;;2.00;;
20711;SDS011;10517;50.742;4.224;2022-12-07T16:46:15;3.17;;;1.73;;
20711;SDS011;10517;50.742;4.224;2022-12-07T16:48:41;2.60;;;2.10;;
20711;SDS011;10517;50.742;4.224;2022-12-07T16:51:09;3.43;;;1.70;;
20711;SDS011;10517;50.742;4.224;2022-12-07T16:53:37;2.70;;;1.80;;
20711;SDS011;10517;50.742;4.224;2022-12-07T16:56:05;3.10;;;1.30;;
20711;SDS011;10517;50.742;4.224;2022-12-07T16:58:35;1.80;;;1.70;;
20711;SDS011;10517;50.742;4.224;2022-12-07T17:01:08;2.40;;;1.93;;
20711;SDS011;10517;50.742;4.224;2022-12-07T17:03:38;1.60;;;1.50;;
20711;SDS011;10517;50.742;4.224;2022-12-07T17:06:09;2.83;;;2.00;;
20711;SDS011;10517;50.742;4.224;2022-12-07T17:08:38;4.47;;;2.07;;
20711;SDS011;10517;50.742;4.224;2022-12-07T17:11:08;2.73;;;1.90;;
20711;SDS011;10517;50.742;4.224;2022-12-07T17:13:35;4.17;;;1.97;;
20711;SDS011;10517;50.742;4.224;2022-12-07T17:16:19;2.97;;;1.77;;
20711;SDS011;10517;50.742;4.224;2022-12-07T17:18:45;2.63;;;1.87;;
20711;SDS011;10517;50.742;4.224;2022-12-07T17:21:10;5.50;;;2.27;;